createdAt,value
2017-09-29T00:00:23.717Z,100.00
2017-09-29T00:02:58.581Z,100.00
2017-09-29T00:05:33.318Z,100.00
2017-09-29T00:08:08.264Z,100.00
2017-09-29T00:10:43.042Z,100.00
2017-09-29T00:13:18.098Z,100.00
2017-09-29T00:15:53.325Z,100.00
2017-09-29T00:18:28.652Z,100.00
2017-09-29T00:21:03.815Z,100.00
2017-09-29T00:23:38.334Z,100.00
2017-09-29T00:26:13.267Z,100.00
2017-09-29T00:28:48.092Z,100.00
2017-09-29T00:31:22.522Z,100.00
2017-09-29T00:33:57.522Z,100.00
2017-09-29T00:36:31.905Z,100.00
2017-09-29T00:39:06.750Z,100.00
2017-09-29T00:41:41.905Z,100.00
2017-09-29T00:44:16.174Z,100.00
2017-09-29T00:46:51.410Z,100.00
2017-09-29T00:49:26.093Z,100.00
2017-09-29T00:52:00.875Z,100.00
2017-09-29T00:54:35.645Z,100.00
2017-09-29T00:57:10.105Z,100.00
2017-09-29T00:59:44.976Z,100.00
2017-09-29T01:02:19.998Z,100.00
2017-09-29T01:04:54.909Z,100.00
2017-09-29T01:07:29.742Z,100.00
2017-09-29T01:10:05.094Z,100.00
2017-09-29T01:12:39.530Z,100.00
2017-09-29T01:15:13.974Z,99.94
2017-09-29T01:17:48.649Z,99.85
2017-09-29T01:20:23.261Z,99.65
2017-09-29T01:22:58.130Z,99.57
2017-09-29T01:25:32.817Z,100.00
2017-09-29T01:28:07.674Z,100.00
2017-09-29T01:30:42.353Z,100.00
2017-09-29T01:33:17.100Z,100.00
2017-09-29T01:35:52.006Z,100.00
2017-09-29T01:38:26.866Z,99.93
2017-09-29T01:41:01.652Z,99.89
2017-09-29T01:43:36.411Z,100.00
2017-09-29T01:46:11.193Z,100.00
2017-09-29T01:48:45.984Z,100.00
2017-09-29T01:51:20.682Z,100.00
2017-09-29T01:53:55.506Z,100.00
2017-09-29T01:56:29.962Z,100.00
2017-09-29T01:59:04.706Z,100.00
2017-09-29T02:01:39.246Z,100.00
2017-09-29T02:04:13.875Z,100.00
2017-09-29T02:06:48.616Z,100.00
2017-09-29T02:09:23.981Z,100.00
2017-09-29T02:11:58.765Z,100.00
2017-09-29T02:14:32.902Z,100.00
2017-09-29T02:17:07.730Z,100.00
2017-09-29T02:19:42.730Z,100.00
2017-09-29T02:22:17.390Z,100.00
2017-09-29T02:24:52.533Z,100.00
2017-09-29T02:27:27.017Z,100.00
2017-09-29T02:30:01.947Z,100.00
2017-09-29T02:32:37.074Z,100.00
2017-09-29T02:35:12.757Z,100.00
2017-09-29T02:37:47.581Z,100.00
2017-09-29T02:40:22.510Z,100.00
2017-09-29T02:42:57.158Z,100.00
2017-09-29T02:45:32.033Z,99.95
2017-09-29T02:48:07.086Z,99.69
2017-09-29T02:50:41.848Z,99.61
2017-09-29T02:53:16.650Z,99.57
2017-09-29T02:55:51.301Z,99.42
2017-09-29T02:58:26.797Z,99.29
2017-09-29T03:01:04.161Z,99.14
2017-09-29T03:03:39.062Z,99.00
2017-09-29T03:06:14.501Z,98.96
2017-09-29T03:08:49.241Z,99.20
2017-09-29T03:11:23.790Z,99.37
2017-09-29T03:13:58.542Z,99.46
2017-09-29T03:16:33.449Z,99.44
2017-09-29T03:19:08.376Z,99.62
2017-09-29T03:21:43.085Z,99.81
2017-09-29T03:24:17.618Z,100.00
2017-09-29T03:26:52.869Z,100.00
2017-09-29T03:29:27.263Z,100.00
2017-09-29T03:32:02.421Z,100.00
2017-09-29T03:34:37.421Z,100.00
2017-09-29T03:37:12.198Z,99.88
2017-09-29T03:39:47.062Z,100.00
2017-09-29T03:42:21.870Z,100.00
2017-09-29T03:44:56.546Z,99.70
2017-09-29T03:47:31.609Z,99.49
2017-09-29T03:50:10.173Z,99.55
2017-09-29T03:52:46.086Z,99.44
2017-09-29T03:55:22.629Z,99.67
2017-09-29T03:57:58.097Z,99.62
2017-09-29T04:00:32.646Z,99.81
2017-09-29T04:03:07.594Z,99.81
2017-09-29T04:05:42.178Z,99.68
2017-09-29T04:08:17.165Z,99.52
2017-09-29T04:10:51.930Z,99.65
2017-09-29T04:13:26.901Z,99.57
2017-09-29T04:16:01.170Z,99.40
2017-09-29T04:18:36.373Z,99.42
2017-09-29T04:21:10.999Z,99.43
2017-09-29T04:23:45.874Z,99.33
2017-09-29T04:26:20.587Z,99.21
2017-09-29T04:28:55.229Z,98.97
2017-09-29T04:31:30.110Z,99.03
2017-09-29T04:34:05.070Z,99.17
2017-09-29T04:36:39.846Z,99.03
2017-09-29T04:39:14.597Z,98.78
2017-09-29T04:41:49.753Z,98.80
2017-09-29T04:44:25.178Z,98.65
2017-09-29T04:47:00.081Z,98.66
2017-09-29T04:49:34.865Z,98.65
2017-09-29T04:52:09.797Z,98.70
2017-09-29T04:54:44.490Z,98.94
2017-09-29T04:57:19.046Z,99.03
2017-09-29T04:59:54.169Z,98.88
2017-09-29T05:02:28.901Z,99.10
2017-09-29T05:05:04.347Z,99.34
2017-09-29T05:07:39.761Z,99.26
2017-09-29T05:10:14.537Z,99.42
2017-09-29T05:12:49.365Z,99.55
2017-09-29T05:15:24.134Z,99.38
2017-09-29T05:17:58.721Z,99.08
2017-09-29T05:20:33.230Z,99.13
2017-09-29T05:23:07.929Z,99.09
2017-09-29T05:25:42.833Z,99.33
2017-09-29T05:28:17.046Z,99.45
2017-09-29T05:30:52.113Z,99.21
2017-09-29T05:33:26.965Z,99.17
2017-09-29T05:36:01.705Z,99.01
2017-09-29T05:38:36.721Z,98.99
2017-09-29T05:41:11.582Z,98.95
2017-09-29T05:43:46.496Z,98.91
2017-09-29T05:46:21.114Z,98.95
2017-09-29T05:48:55.770Z,98.90
2017-09-29T05:51:30.539Z,98.82
2017-09-29T05:54:05.297Z,98.55
2017-09-29T05:56:40.173Z,98.42
2017-09-29T05:59:15.077Z,98.35
2017-09-29T06:01:49.550Z,98.75
2017-09-29T06:04:24.314Z,98.70
2017-09-29T06:06:59.113Z,98.65
2017-09-29T06:09:34.049Z,98.63
2017-09-29T06:12:08.932Z,98.40
2017-09-29T06:14:44.311Z,98.54
2017-09-29T06:17:19.049Z,98.34
2017-09-29T06:19:54.013Z,98.03
2017-09-29T06:22:29.056Z,97.79
2017-09-29T06:25:03.927Z,96.73
2017-09-29T06:27:38.660Z,96.85
2017-09-29T06:30:13.454Z,96.77
2017-09-29T06:32:48.302Z,96.97
2017-09-29T06:35:23.286Z,97.17
2017-09-29T06:37:58.277Z,97.38
2017-09-29T06:40:33.313Z,97.44
2017-09-29T06:43:07.997Z,97.51
2017-09-29T06:45:43.065Z,97.59
2017-09-29T06:48:17.500Z,97.52
2017-09-29T06:50:52.202Z,97.46
2017-09-29T06:53:26.949Z,97.44
2017-09-29T06:56:01.781Z,97.22
2017-09-29T06:58:36.585Z,97.03
2017-09-29T07:01:11.241Z,97.02
2017-09-29T07:03:45.889Z,97.09
2017-09-29T07:06:20.697Z,97.14
2017-09-29T07:08:55.393Z,97.03
2017-09-29T07:11:30.262Z,96.91
2017-09-29T07:14:04.934Z,97.00
2017-09-29T07:16:39.881Z,96.57
2017-09-29T07:19:14.837Z,96.39
2017-09-29T07:21:49.614Z,96.21
2017-09-29T07:24:24.398Z,96.24
2017-09-29T07:27:01.134Z,96.38
2017-09-29T07:29:37.318Z,96.62
2017-09-29T07:32:14.506Z,96.43
2017-09-29T07:34:49.186Z,96.50
2017-09-29T07:37:24.061Z,96.72
2017-09-29T07:39:58.941Z,96.69
2017-09-29T07:42:33.869Z,96.58
2017-09-29T07:45:08.773Z,96.28
2017-09-29T07:47:43.501Z,96.14
2017-09-29T07:50:18.253Z,95.96
2017-09-29T07:52:53.157Z,95.97
2017-09-29T07:55:27.809Z,95.59
2017-09-29T07:58:02.713Z,95.38
2017-09-29T08:00:38.606Z,95.06
2017-09-29T08:03:13.301Z,94.76
2017-09-29T08:05:48.058Z,95.28
2017-09-29T08:08:23.002Z,95.39
2017-09-29T08:10:57.637Z,95.58
2017-09-29T08:13:32.266Z,95.90
2017-09-29T08:16:06.467Z,95.86
2017-09-29T08:18:41.169Z,95.68
2017-09-29T08:21:16.138Z,95.64
2017-09-29T08:23:50.853Z,95.84
2017-09-29T08:26:25.641Z,95.67
2017-09-29T08:29:00.461Z,95.60
2017-09-29T08:31:35.104Z,95.56
2017-09-29T08:34:10.091Z,95.23
2017-09-29T08:36:45.482Z,94.55
2017-09-29T08:39:20.287Z,94.32
2017-09-29T08:41:55.041Z,93.59
2017-09-29T08:44:29.929Z,92.08
2017-09-29T08:47:04.551Z,92.15
2017-09-29T08:49:39.698Z,91.96
2017-09-29T08:52:14.426Z,91.86
2017-09-29T08:54:49.335Z,92.36
2017-09-29T08:57:24.011Z,91.95
2017-09-29T08:59:58.878Z,91.82
2017-09-29T09:02:33.434Z,91.75
2017-09-29T09:05:08.372Z,91.19
2017-09-29T09:07:43.274Z,90.49
2017-09-29T09:10:17.849Z,91.47
2017-09-29T09:12:52.487Z,91.88
2017-09-29T09:15:27.570Z,91.57
2017-09-29T09:18:02.163Z,90.80
2017-09-29T09:20:36.891Z,88.67
2017-09-29T09:23:11.622Z,88.49
2017-09-29T09:25:46.438Z,88.55
2017-09-29T09:28:21.201Z,87.71
2017-09-29T09:30:56.033Z,87.94
2017-09-29T09:33:30.694Z,86.24
2017-09-29T09:36:05.401Z,86.12
2017-09-29T09:38:40.050Z,85.03
2017-09-29T09:41:14.878Z,85.78
2017-09-29T09:43:49.358Z,85.90
2017-09-29T09:46:24.403Z,85.73
2017-09-29T09:48:58.878Z,85.26
2017-09-29T09:51:34.846Z,85.57
2017-09-29T09:54:09.519Z,86.20
2017-09-29T09:56:44.213Z,85.19
2017-09-29T09:59:18.769Z,85.01
2017-09-29T10:01:53.628Z,84.97
2017-09-29T10:04:28.202Z,84.45
2017-09-29T10:07:02.793Z,84.90
2017-09-29T10:09:37.785Z,83.92
2017-09-29T10:12:12.621Z,84.07
2017-09-29T10:14:47.289Z,83.59
2017-09-29T10:17:22.761Z,82.22
2017-09-29T10:19:57.801Z,83.00
2017-09-29T10:22:32.790Z,82.40
2017-09-29T10:25:07.338Z,82.34
2017-09-29T10:27:42.030Z,81.50
2017-09-29T10:30:16.817Z,81.86
2017-09-29T10:32:51.719Z,81.13
2017-09-29T10:35:26.502Z,81.70
2017-09-29T10:38:01.227Z,80.48
2017-09-29T10:40:35.987Z,80.36
2017-09-29T10:43:10.981Z,79.79
2017-09-29T10:45:45.766Z,79.05
2017-09-29T10:48:20.470Z,78.20
2017-09-29T10:50:55.325Z,77.05
2017-09-29T10:53:29.833Z,74.58
2017-09-29T10:56:04.577Z,74.16
2017-09-29T10:58:39.793Z,73.51
2017-09-29T11:01:14.558Z,72.21
2017-09-29T11:03:49.545Z,71.49
2017-09-29T11:06:24.389Z,72.10
2017-09-29T11:08:59.169Z,71.39
2017-09-29T11:11:34.001Z,71.34
2017-09-29T11:14:08.786Z,71.26
2017-09-29T11:16:43.610Z,71.38
2017-09-29T11:19:18.405Z,70.98
2017-09-29T11:21:53.137Z,71.04
2017-09-29T11:24:27.896Z,68.82
2017-09-29T11:27:02.709Z,68.97
2017-09-29T11:29:37.549Z,69.87
2017-09-29T11:32:12.722Z,71.38
2017-09-29T11:34:47.214Z,70.42
2017-09-29T11:37:22.037Z,70.98
2017-09-29T11:39:56.789Z,71.54
2017-09-29T11:42:31.815Z,70.36
2017-09-29T11:45:06.241Z,70.25
2017-09-29T11:47:41.129Z,69.09
2017-09-29T11:50:15.973Z,68.32
2017-09-29T11:52:50.909Z,70.45
2017-09-29T11:55:25.638Z,68.62
2017-09-29T11:58:00.614Z,69.00
2017-09-29T12:00:35.441Z,67.80
2017-09-29T12:03:10.356Z,68.26
2017-09-29T12:05:45.202Z,69.06
2017-09-29T12:08:19.995Z,69.83
2017-09-29T12:10:54.658Z,69.66
2017-09-29T12:13:29.698Z,66.47
2017-09-29T12:16:04.643Z,67.82
2017-09-29T12:18:39.602Z,68.55
2017-09-29T12:21:14.303Z,68.88
2017-09-29T12:23:49.183Z,68.43
2017-09-29T12:26:23.946Z,68.61
2017-09-29T12:28:58.762Z,69.79
2017-09-29T12:31:33.514Z,70.10
2017-09-29T12:34:08.417Z,69.70
2017-09-29T12:36:43.351Z,70.43
2017-09-29T12:39:18.109Z,70.13
2017-09-29T12:41:53.165Z,71.55
2017-09-29T12:44:27.691Z,72.12
2017-09-29T12:47:02.385Z,73.09
2017-09-29T12:49:37.245Z,73.26
2017-09-29T12:52:12.266Z,72.87
2017-09-29T12:54:46.949Z,72.92
2017-09-29T12:57:21.831Z,73.31
2017-09-29T12:59:56.687Z,73.38
2017-09-29T13:02:31.313Z,72.68
2017-09-29T13:05:06.069Z,72.70
2017-09-29T13:07:40.845Z,72.93
2017-09-29T13:10:15.691Z,72.85
2017-09-29T13:12:50.806Z,73.61
2017-09-29T13:15:25.761Z,73.74
2017-09-29T13:18:00.690Z,73.38
2017-09-29T13:20:35.768Z,73.29
2017-09-29T13:23:10.657Z,73.19
2017-09-29T13:25:45.513Z,73.86
2017-09-29T13:28:20.278Z,73.77
2017-09-29T13:30:55.225Z,74.01
2017-09-29T13:33:29.381Z,74.38
2017-09-29T13:36:04.562Z,74.55
2017-09-29T13:38:39.437Z,75.28
2017-09-29T13:41:14.217Z,75.40
2017-09-29T13:43:48.998Z,74.88
2017-09-29T13:46:23.725Z,74.60
2017-09-29T13:48:58.431Z,73.99
2017-09-29T13:51:33.157Z,73.98
2017-09-29T13:54:08.090Z,74.07
2017-09-29T13:56:43.043Z,74.20
2017-09-29T13:59:17.845Z,73.87
2017-09-29T14:01:52.493Z,73.43
2017-09-29T14:04:27.230Z,73.54
2017-09-29T14:07:02.027Z,73.79
2017-09-29T14:09:36.670Z,74.10
2017-09-29T14:12:11.509Z,74.68
2017-09-29T14:14:46.266Z,75.25
2017-09-29T14:17:20.998Z,75.53
2017-09-29T14:19:55.661Z,75.92
2017-09-29T14:22:30.397Z,76.38
2017-09-29T14:25:05.110Z,75.89
2017-09-29T14:27:40.106Z,75.51
2017-09-29T14:30:15.007Z,75.25
2017-09-29T14:32:50.137Z,75.01
2017-09-29T14:35:25.244Z,74.75
2017-09-29T14:37:59.889Z,74.53
2017-09-29T14:40:34.737Z,73.93
2017-09-29T14:43:09.483Z,73.82
2017-09-29T14:45:44.413Z,73.59
2017-09-29T14:48:19.213Z,73.87
2017-09-29T14:50:53.895Z,74.00
2017-09-29T14:53:28.621Z,73.71
2017-09-29T14:56:03.518Z,74.36
2017-09-29T14:58:38.478Z,73.55
2017-09-29T15:01:13.283Z,73.70
2017-09-29T15:03:48.840Z,73.88
2017-09-29T15:06:24.090Z,73.89
2017-09-29T15:08:58.846Z,73.74
2017-09-29T15:11:33.718Z,73.94
2017-09-29T15:14:08.577Z,74.16
2017-09-29T15:16:43.381Z,74.32
2017-09-29T15:19:18.238Z,73.71
2017-09-29T15:21:52.750Z,73.82
2017-09-29T15:24:27.581Z,74.70
2017-09-29T15:27:01.250Z,74.66
2017-09-29T15:29:36.537Z,74.80
2017-09-29T15:32:11.346Z,75.14
2017-09-29T15:34:46.178Z,75.75
2017-09-29T15:37:20.929Z,76.09
2017-09-29T15:39:55.882Z,76.29
2017-09-29T15:42:30.681Z,76.40
2017-09-29T15:45:06.021Z,76.38
2017-09-29T15:47:41.173Z,76.94
2017-09-29T15:50:15.902Z,76.72
2017-09-29T15:52:51.163Z,77.22
2017-09-29T15:55:28.646Z,77.21
2017-09-29T15:58:03.507Z,76.88
2017-09-29T16:00:38.385Z,76.74
2017-09-29T16:03:13.065Z,76.86
2017-09-29T16:05:47.978Z,77.13
2017-09-29T16:08:22.832Z,77.26
2017-09-29T16:10:57.782Z,77.18
2017-09-29T16:13:32.898Z,77.42
2017-09-29T16:16:07.942Z,78.14
2017-09-29T16:18:42.938Z,78.32
2017-09-29T16:21:17.706Z,78.55
2017-09-29T16:23:52.485Z,78.74
2017-09-29T16:26:27.253Z,78.97
2017-09-29T16:29:02.179Z,79.06
2017-09-29T16:31:37.117Z,79.12
2017-09-29T16:34:12.019Z,79.39
2017-09-29T16:36:46.912Z,79.83
2017-09-29T16:39:21.703Z,80.28
2017-09-29T16:41:56.578Z,80.77
2017-09-29T16:44:31.350Z,82.04
2017-09-29T16:47:06.229Z,81.65
2017-09-29T16:49:41.009Z,82.76
2017-09-29T16:52:15.917Z,82.83
2017-09-29T16:54:51.086Z,83.00
2017-09-29T16:57:26.151Z,83.36
2017-09-29T17:00:01.229Z,82.83
2017-09-29T17:02:36.034Z,82.68
2017-09-29T17:05:10.918Z,83.02
2017-09-29T17:07:45.542Z,82.59
2017-09-29T17:10:20.421Z,82.83
2017-09-29T17:12:55.222Z,82.51
2017-09-29T17:15:30.122Z,82.22
2017-09-29T17:18:05.108Z,81.55
2017-09-29T17:20:40.098Z,81.19
2017-09-29T17:23:15.034Z,81.91
2017-09-29T17:25:49.934Z,82.11
2017-09-29T17:28:24.818Z,81.93
2017-09-29T17:30:59.766Z,82.34
2017-09-29T17:33:34.662Z,82.23
2017-09-29T17:36:09.526Z,82.03
2017-09-29T17:38:44.171Z,81.83
2017-09-29T17:41:19.201Z,82.09
2017-09-29T17:43:54.165Z,82.17
2017-09-29T17:46:29.065Z,82.42
2017-09-29T17:49:03.893Z,83.64
2017-09-29T17:51:38.722Z,84.94
2017-09-29T17:54:13.802Z,85.85
2017-09-29T17:56:48.573Z,86.44
2017-09-29T17:59:23.510Z,86.84
2017-09-29T18:01:58.354Z,86.53
2017-09-29T18:04:33.413Z,86.48
2017-09-29T18:07:08.794Z,86.67
2017-09-29T18:09:43.576Z,86.99
2017-09-29T18:12:18.482Z,87.06
2017-09-29T18:14:53.317Z,86.71
2017-09-29T18:17:28.182Z,86.74
2017-09-29T18:20:04.405Z,87.65
2017-09-29T18:22:39.114Z,87.79
2017-09-29T18:25:14.349Z,87.33
2017-09-29T18:27:49.121Z,86.90
2017-09-29T18:30:23.770Z,86.82
2017-09-29T18:32:58.627Z,86.91
2017-09-29T18:35:33.674Z,87.18
2017-09-29T18:38:08.982Z,87.09
2017-09-29T18:40:43.749Z,87.35
2017-09-29T18:43:19.061Z,87.40
2017-09-29T18:45:56.094Z,87.50
2017-09-29T18:48:31.358Z,87.93
2017-09-29T18:51:06.070Z,87.93
2017-09-29T18:53:40.929Z,87.99
2017-09-29T18:56:15.765Z,87.87
2017-09-29T18:58:50.657Z,87.66
2017-09-29T19:01:25.490Z,87.62
2017-09-29T19:04:00.418Z,87.43
2017-09-29T19:06:35.385Z,87.35
2017-09-29T19:09:10.187Z,87.24
2017-09-29T19:11:45.206Z,87.40
2017-09-29T19:14:19.914Z,87.57
2017-09-29T19:16:54.461Z,87.54
2017-09-29T19:19:29.414Z,87.54
2017-09-29T19:22:04.347Z,87.65
2017-09-29T19:24:39.580Z,87.80
2017-09-29T19:27:14.358Z,87.76
2017-09-29T19:29:49.229Z,87.73
2017-09-29T19:32:24.251Z,87.71
2017-09-29T19:34:59.593Z,87.90
2017-09-29T19:37:34.478Z,87.72
2017-09-29T19:40:09.357Z,87.61
2017-09-29T19:42:44.530Z,87.48
2017-09-29T19:45:19.761Z,87.54
2017-09-29T19:47:54.818Z,87.62
2017-09-29T19:50:29.500Z,87.37
2017-09-29T19:53:04.493Z,87.49
2017-09-29T19:55:39.425Z,87.56
2017-09-29T19:58:14.402Z,87.73
2017-09-29T20:00:49.154Z,87.95
2017-09-29T20:03:24.181Z,87.86
2017-09-29T20:05:58.913Z,87.86
2017-09-29T20:08:34.165Z,87.91
2017-09-29T20:11:08.917Z,88.37
2017-09-29T20:13:43.748Z,88.54
2017-09-29T20:16:18.161Z,88.41
2017-09-29T20:18:52.817Z,88.48
2017-09-29T20:21:27.634Z,88.76
2017-09-29T20:24:02.613Z,88.74
2017-09-29T20:26:37.542Z,88.78
2017-09-29T20:29:12.902Z,88.51
2017-09-29T20:31:47.763Z,88.46
2017-09-29T20:34:22.881Z,88.65
2017-09-29T20:36:57.277Z,88.76
2017-09-29T20:39:32.161Z,88.83
2017-09-29T20:42:07.098Z,89.03
2017-09-29T20:44:41.881Z,89.17
2017-09-29T20:47:16.601Z,89.47
2017-09-29T20:49:51.503Z,89.40
2017-09-29T20:52:26.301Z,89.30
2017-09-29T20:55:00.953Z,89.70
2017-09-29T20:57:36.090Z,89.98
2017-09-29T21:00:11.019Z,90.08
2017-09-29T21:02:45.769Z,90.13
2017-09-29T21:05:20.649Z,89.83
2017-09-29T21:07:55.448Z,89.75
2017-09-29T21:10:30.301Z,89.50
2017-09-29T21:13:05.553Z,90.00
2017-09-29T21:15:40.067Z,90.43
2017-09-29T21:18:14.994Z,90.62
2017-09-29T21:20:50.042Z,90.98
2017-09-29T21:23:25.193Z,90.98
2017-09-29T21:25:59.878Z,90.92
2017-09-29T21:28:34.653Z,90.83
2017-09-29T21:31:09.465Z,90.66
2017-09-29T21:33:44.225Z,90.65
2017-09-29T21:36:19.338Z,90.84
2017-09-29T21:38:53.841Z,90.85
2017-09-29T21:41:28.902Z,90.72
2017-09-29T21:44:03.921Z,90.38
2017-09-29T21:46:38.791Z,90.07
2017-09-29T21:49:13.558Z,89.98
2017-09-29T21:51:48.393Z,90.33
2017-09-29T21:54:23.189Z,90.47
2017-09-29T21:56:58.197Z,90.52
2017-09-29T21:59:33.069Z,90.39
2017-09-29T22:02:08.149Z,90.58
2017-09-29T22:04:42.954Z,90.61
2017-09-29T22:07:17.731Z,90.52
2017-09-29T22:09:52.533Z,90.65
2017-09-29T22:12:27.654Z,90.61
2017-09-29T22:15:02.642Z,90.71
2017-09-29T22:17:37.693Z,90.77
2017-09-29T22:20:13.077Z,91.08
2017-09-29T22:22:47.945Z,91.05
2017-09-29T22:25:22.837Z,91.32
2017-09-29T22:27:57.685Z,91.38
2017-09-29T22:30:32.554Z,91.20
2017-09-29T22:33:07.346Z,91.56
2017-09-29T22:35:42.102Z,91.45
2017-09-29T22:38:16.882Z,91.76
2017-09-29T22:40:51.658Z,91.75
2017-09-29T22:43:26.469Z,91.76
2017-09-29T22:46:01.341Z,91.69
2017-09-29T22:48:36.317Z,91.51
2017-09-29T22:51:11.442Z,91.24
2017-09-29T22:53:46.521Z,91.18
2017-09-29T22:56:21.497Z,91.31
2017-09-29T22:58:56.378Z,91.27
2017-09-29T23:01:31.194Z,91.35
2017-09-29T23:04:06.072Z,91.52
2017-09-29T23:06:40.965Z,91.26
2017-09-29T23:09:16.046Z,90.88
2017-09-29T23:11:51.121Z,90.75
2017-09-29T23:14:26.137Z,90.59
2017-09-29T23:17:01.125Z,90.50
2017-09-29T23:19:36.087Z,90.29
2017-09-29T23:22:11.426Z,90.29
2017-09-29T23:24:46.313Z,90.21
2017-09-29T23:27:21.062Z,90.18
2017-09-29T23:29:56.109Z,90.08
2017-09-29T23:32:30.981Z,90.29
2017-09-29T23:35:06.058Z,90.58
2017-09-29T23:37:40.781Z,90.73
2017-09-29T23:40:15.642Z,90.81
2017-09-29T23:42:50.465Z,91.01
2017-09-29T23:45:25.545Z,90.90
2017-09-29T23:48:00.433Z,91.25
2017-09-29T23:50:35.249Z,91.59
2017-09-29T23:53:10.081Z,91.95
2017-09-29T23:55:44.806Z,93.51
2017-09-29T23:58:19.732Z,94.39
